Pagina principale
METAR-TAF:

METAR-TAF

Aeroporti :

Aeroporto di Perugia

Perugia, Italia

latitudine: 43-05N, longitudine: 012-30E, altezza: 208 m

Osservazione

Il bollettino è stato emesso 31 minuti fa, alle 18:50 UTC
Vento 10 kt da nord
Temperature 20°C
Umidità 37%
Pressione 1017 hPa
Visibilità 10 km o più
nessuna nube inferiore a 1500 m e nessun cumulonembo

METAR: LIRZ 231850Z 01010KT CAVOK 20/05 Q1017

Ora: 21:21 (19:21 UTC)

Previsione

Il bollettino è stato emesso 2 ore e 21 minuti fa, alle 17:00 UTC
Previsione valida dal 23 alle 18 UTC al 24 alle 18 UTC
Vento 15 kt da nord/nord-est
Visibilità 10 km o più
nessuna nube inferiore a 1500 m e nessun cumulonembo
Evoluzione graduale
dal 23 alle 19 UTC al 23 alle 21 UTC
Vento 5 kt da direzioni variabili
Evoluzione graduale
dal 24 alle 08 UTC al 24 alle 10 UTC
Vento 10 kt da nord-est

TAF: LIRZ 231700Z 2318/2418 03015KT CAVOK BECMG 2319/2321 VRB05KT BECMG 2408/2410 04010KT

Osservazioni e previsioni meteorologiche di più di 4000 aeroporti (messaggi METAR e TAF).

Le stazioni disponibili sono rappresentate dai dischi gialli e rossi sulla carta.

Puntare il mouse per vedere il nome della stazione.

Clicca sopra per visualizzare le osservazioni e previsioni meteorologiche.

Per cambiare la mappa : fare clic sui pulsanti verdi con una croce nera per ingrandire, il pulsante verde con un trattino per diminuire, o sulla freccia verde per le mappe adiacenti.


METAR-TAF: